Time;durP1;ratioP1;P1;durP2;ratioP2;P2;SDS_P1;SDS_P2;PMS_P1;PMS_P2;Temp;Humidity;BMP_temperature;BMP_pressure;BME280_temperature;BME280_humidity;BME280_pressure;Samples;Min_cycle;Max_cycle;Signal;HPM_P1;HPM_P2
2022/04/14 00:00:02;;;;;;;7.35;5.68;;;;;;;12.38;41.72;99320.19;5085940;28;20082;-69
2022/04/14 00:02:30;;;;;;;8.70;5.72;;;;;;;12.35;41.70;99320.38;5085563;28;20063;-69
2022/04/14 00:05:00;;;;;;;9.73;6.32;;;;;;;12.28;41.94;99316.41;5085951;28;20184;-68
2022/04/14 00:07:30;;;;;;;7.00;5.13;;;;;;;12.22;41.99;99322.09;5086078;28;20056;-68
2022/04/14 00:10:02;;;;;;;10.40;5.30;;;;;;;11.89;42.55;99275.38;5086113;28;20040;-69
2022/04/14 00:12:30;;;;;;;8.30;5.43;;;;;;;12.10;42.66;99321.03;5068543;28;20045;-69
2022/04/14 00:15:04;;;;;;;7.68;5.78;;;;;;;12.08;42.53;99319.41;5086312;28;20064;-69
2022/04/14 00:17:36;;;;;;;6.38;4.90;;;;;;;12.13;42.03;99318.19;5086170;28;20083;-70
2022/04/14 00:20:09;;;;;;;7.53;5.03;;;;;;;12.03;43.16;99324.16;5085887;28;20048;-70
2022/04/14 00:22:37;;;;;;;6.82;4.80;;;;;;;12.06;42.63;99313.34;5085906;28;20056;-68
2022/04/14 00:25:11;;;;;;;7.78;4.65;;;;;;;11.98;42.93;99311.13;5086066;28;20044;-69
2022/04/14 00:27:44;;;;;;;7.80;4.88;;;;;;;11.76;43.07;99268.25;5085674;28;20050;-69
2022/04/14 00:30:18;;;;;;;6.85;4.32;;;;;;;11.75;42.74;99262.09;5085909;28;20042;-69
2022/04/14 00:32:50;;;;;;;7.45;5.40;;;;;;;11.92;43.42;99305.34;5085892;28;20083;-69
2022/04/14 00:35:22;;;;;;;6.05;4.82;;;;;;;11.92;43.00;99302.69;5068222;28;20204;-69
2022/04/14 00:37:54;;;;;;;6.90;5.03;;;;;;;11.96;43.05;99301.56;5085610;28;20106;-70
2022/04/14 00:40:27;;;;;;;7.03;4.68;;;;;;;11.93;43.00;99299.94;5085644;28;20036;-70
2022/04/14 00:42:59;;;;;;;6.47;4.35;;;;;;;11.94;42.82;99300.78;5085523;28;20040;-70
2022/04/14 00:45:33;;;;;;;7.45;4.60;;;;;;;11.79;42.93;99276.03;5085763;28;20040;-69
2022/04/14 00:48:06;;;;;;;7.38;4.68;;;;;;;11.95;43.44;99299.84;5085816;28;20108;-69
2022/04/14 00:50:38;;;;;;;7.57;5.15;;;;;;;11.91;43.37;99299.19;5085701;28;20037;-69
2022/04/14 00:53:10;;;;;;;5.50;4.82;;;;;;;11.91;43.03;99307.16;5068153;28;20239;-70
2022/04/14 00:55:42;;;;;;;7.07;5.25;;;;;;;11.92;43.35;99302.69;5052203;28;20044;-70
2022/04/14 00:58:15;;;;;;;6.60;4.22;;;;;;;11.86;43.71;99299.47;5085313;28;20049;-70
2022/04/14 01:00:49;;;;;;;7.65;4.70;;;;;;;11.85;43.33;99302.22;5085187;28;20086;-71
2022/04/14 01:03:22;;;;;;;5.78;4.45;;;;;;;11.76;43.59;99297.47;5085091;28;20284;-70
2022/04/14 01:05:56;;;;;;;7.22;4.50;;;;;;;11.55;43.55;99255.34;5086879;28;20041;-70
2022/04/14 01:08:32;;;;;;;6.50;4.13;;;;;;;11.45;43.85;99254.19;5088572;28;20056;-69
2022/04/14 01:11:04;;;;;;;7.60;4.60;;;;;;;11.70;43.99;99298.69;5089063;28;20045;-69
2022/04/14 01:13:36;;;;;;;7.97;4.70;;;;;;;11.45;43.54;99248.03;5088658;28;20040;-69
2022/04/14 01:16:10;;;;;;;6.10;4.25;;;;;;;11.75;43.52;99299.25;5088920;28;20040;-69
2022/04/14 01:18:42;;;;;;;7.13;4.10;;;;;;;11.51;43.49;99261.78;5088602;28;20044;-69
2022/04/14 01:21:14;;;;;;;7.55;5.18;;;;;;;11.80;43.46;99304.28;5088924;28;20293;-68
2022/04/14 01:23:49;;;;;;;7.90;4.47;;;;;;;11.81;43.38;99298.88;5071224;28;20044;-69
2022/04/14 01:26:21;;;;;;;6.43;4.32;;;;;;;11.74;43.67;99297.56;5088519;28;20181;-68
2022/04/14 01:28:53;;;;;;;5.90;4.40;;;;;;;11.78;43.50;99301.72;5070889;28;20083;-68
2022/04/14 01:31:26;;;;;;;8.38;5.03;;;;;;;11.34;43.25;99237.22;5071147;28;20044;-68
2022/04/14 01:33:58;;;;;;;8.48;5.05;;;;;;;11.71;44.18;99297.75;5088303;28;20082;-69
2022/04/14 01:36:30;;;;;;;7.22;5.38;;;;;;;11.66;43.66;99299.81;5088581;28;20044;-69
2022/04/14 01:39:03;;;;;;;6.75;4.70;;;;;;;11.60;44.14;99297.53;5088206;28;20247;-69
2022/04/14 01:41:35;;;;;;;6.30;4.55;;;;;;;11.56;43.91;99299.53;5088181;28;20045;-70
2022/04/14 01:44:08;;;;;;;8.10;5.05;;;;;;;11.60;43.23;99333.84;5088156;28;20301;-69
2022/04/14 01:46:41;;;;;;;9.13;5.13;;;;;;;11.58;43.77;99296.78;5088451;28;20349;-69
2022/04/14 01:49:13;;;;;;;10.73;4.53;;;;;;;11.52;43.96;99295.34;5087901;28;20190;-69
2022/04/14 01:51:48;;;;;;;7.50;4.43;;;;;;;11.52;43.77;99305.97;5088230;28;20044;-69
2022/04/14 01:54:21;;;;;;;6.63;4.85;;;;;;;11.18;44.26;99269.09;5088306;28;20082;-68
2022/04/14 01:56:54;;;;;;;7.78;4.43;;;;;;;11.46;43.70;99302.81;5087962;28;20041;-68
2022/04/14 01:59:26;;;;;;;7.13;5.03;;;;;;;11.46;43.81;99303.66;5087938;28;20293;-69
2022/04/14 02:01:58;;;;;;;4.55;3.88;;;;;;;11.39;44.11;99304.13;5088112;28;20048;-68
2022/04/14 02:04:30;;;;;;;5.55;4.25;;;;;;;11.38;43.91;99297.13;5070242;28;20045;-68
2022/04/14 02:07:05;;;;;;;6.78;4.38;;;;;;;11.38;44.23;99297.97;5087627;28;20252;-68
2022/04/14 02:09:38;;;;;;;6.30;4.18;;;;;;;11.39;44.15;99299.66;5087674;28;20067;-67
2022/04/14 02:12:12;;;;;;;7.10;4.05;;;;;;;11.34;44.10;99296.44;5087612;28;20044;-68
2022/04/14 02:14:45;;;;;;;6.68;4.32;;;;;;;11.06;44.00;99252.13;5087871;28;20090;-68
2022/04/14 02:17:17;;;;;;;6.63;3.60;;;;;;;11.33;43.89;99288.56;5087047;28;20044;-68
2022/04/14 02:19:49;;;;;;;5.68;4.63;;;;;;;11.05;44.13;99241.59;5087700;28;20044;-68
2022/04/14 02:22:21;;;;;;;6.38;4.70;;;;;;;11.36;43.72;99285.72;5087714;28;20041;-68
2022/04/14 02:24:55;;;;;;;4.85;3.85;;;;;;;11.41;43.95;99288.97;5087347;28;20044;-68
2022/04/14 02:27:27;;;;;;;4.47;4.07;;;;;;;11.35;43.75;99282.22;5087331;28;20086;-68
2022/04/14 02:29:59;;;;;;;7.45;4.07;;;;;;;11.32;43.84;99287.72;5087212;28;20036;-68
2022/04/14 02:32:31;;;;;;;5.75;4.13;;;;;;;11.37;43.70;99287.44;5069956;28;20193;-69
2022/04/14 02:35:02;;;;;;;7.43;4.75;;;;;;;11.37;43.65;99288.28;5087700;28;20043;-68
2022/04/14 02:37:32;;;;;;;5.22;4.13;;;;;;;11.05;43.96;99231.84;5087379;28;20312;-68
2022/04/14 02:40:04;;;;;;;5.75;4.15;;;;;;;11.30;43.89;99283.44;5087350;28;20041;-68
2022/04/14 02:42:32;;;;;;;5.68;4.07;;;;;;;11.35;43.76;99281.38;5069364;28;20259;-68
2022/04/14 02:45:02;;;;;;;7.35;4.20;;;;;;;11.29;43.95;99287.03;5086881;28;20040;-68
2022/04/14 02:47:32;;;;;;;6.35;3.83;;;;;;;10.98;44.08;99235.81;5087496;28;20028;-68
2022/04/14 02:50:03;;;;;;;5.25;4.05;;;;;;;11.24;43.79;99268.75;5086745;28;20059;-68
2022/04/14 02:52:32;;;;;;;5.72;4.30;;;;;;;11.25;43.92;99273.09;5086794;28;20040;-68
2022/04/14 02:55:04;;;;;;;6.75;4.15;;;;;;;11.26;43.82;99274.81;5086691;28;20047;-68
2022/04/14 02:57:32;;;;;;;5.40;4.05;;;;;;;11.25;43.82;99273.09;5086674;28;20037;-68
2022/04/14 03:00:05;;;;;;;4.95;3.72;;;;;;;11.28;43.68;99277.38;5086578;28;20044;-68
2022/04/14 03:02:33;;;;;;;6.20;4.53;;;;;;;11.25;43.64;99273.09;5086238;28;20052;-68
2022/04/14 03:05:04;;;;;;;4.78;3.75;;;;;;;11.31;43.58;99278.03;5069361;28;20037;-68
2022/04/14 03:07:33;;;;;;;5.90;4.00;;;;;;;11.24;43.52;99268.75;5086509;28;20119;-68
2022/04/14 03:10:05;;;;;;;5.95;3.92;;;;;;;11.21;43.57;99267.13;5086687;28;20044;-67
2022/04/14 03:12:43;;;;;;;6.18;3.58;;;;;;;11.24;43.80;99271.41;5086472;28;20056;-68
2022/04/14 03:15:16;;;;;;;4.95;4.15;;;;;;;11.28;43.48;99269.41;5086393;28;20231;-68
2022/04/14 03:17:49;;;;;;;5.93;3.67;;;;;;;11.28;43.42;99269.41;5086581;28;20040;-68
2022/04/14 03:20:21;;;;;;;6.97;4.68;;;;;;;11.01;43.48;99222.34;5086187;28;20044;-68
2022/04/14 03:22:53;;;;;;;6.53;4.45;;;;;;;11.29;43.68;99265.81;5086125;28;20048;-68
2022/04/14 03:25:27;;;;;;;7.18;4.38;;;;;;;11.25;43.83;99257.19;5086129;28;20098;-68
2022/04/14 03:27:59;;;;;;;6.47;4.30;;;;;;;11.01;43.63;99225.00;5068943;28;20082;-68
2022/04/14 03:30:31;;;;;;;6.32;4.53;;;;;;;11.00;44.14;99233.06;5085198;28;20087;-68
2022/04/14 03:33:04;;;;;;;6.20;4.90;;;;;;;10.90;44.11;99222.13;5068826;28;20120;-68
2022/04/14 03:35:36;;;;;;;6.85;4.32;;;;;;;11.08;44.39;99266.13;5069669;28;20199;-68
2022/04/14 03:38:08;;;;;;;7.20;4.50;;;;;;;10.96;44.96;99268.66;5086235;28;20047;-69
2022/04/14 03:40:42;;;;;;;8.00;4.55;;;;;;;10.89;44.95;99273.47;5086218;28;20045;-69
2022/04/14 03:43:14;;;;;;;7.00;4.60;;;;;;;10.90;44.67;99269.88;5085933;28;20040;-69
2022/04/14 03:45:46;;;;;;;7.45;4.57;;;;;;;10.63;44.63;99250.19;5068753;28;20040;-69
2022/04/14 03:48:18;;;;;;;10.07;4.18;;;;;;;10.94;44.52;99267.88;5068424;28;20041;-69
2022/04/14 03:50:50;;;;;;;6.30;3.92;;;;;;;10.89;44.58;99257.53;5085755;28;20297;-69
2022/04/14 03:53:23;;;;;;;6.25;4.22;;;;;;;10.85;44.60;99266.63;5085747;28;20040;-69
2022/04/14 03:55:56;;;;;;;7.13;4.40;;;;;;;10.87;44.76;99268.25;5085762;28;20086;-69
2022/04/14 03:58:28;;;;;;;6.13;4.20;;;;;;;10.93;44.22;99264.38;5085925;28;20041;-69
2022/04/14 04:01:01;;;;;;;6.65;4.60;;;;;;;10.91;44.51;99260.97;5085576;28;20048;-69
2022/04/14 04:03:33;;;;;;;6.25;3.53;;;;;;;9.34;44.28;98999.78;5085713;28;20238;-69
2022/04/14 04:06:05;;;;;;;6.53;4.25;;;;;;;10.95;44.20;99270.44;5068414;28;20048;-69
2022/04/14 04:08:38;;;;;;;7.28;4.45;;;;;;;10.92;44.42;99267.97;5052509;28;20066;-69
2022/04/14 04:11:12;;;;;;;8.73;4.43;;;;;;;10.90;44.42;99276.03;5068446;28;20037;-69
2022/04/14 04:13:44;;;;;;;6.72;4.00;;;;;;;10.91;44.45;99274.22;5067970;28;20078;-69
2022/04/14 04:16:17;;;;;;;9.32;4.75;;;;;;;10.92;44.32;99275.94;5085624;28;20086;-69
2022/04/14 04:18:49;;;;;;;6.32;4.63;;;;;;;10.95;44.30;99278.41;5085612;28;20094;-69
2022/04/14 04:21:21;;;;;;;6.22;4.15;;;;;;;10.98;44.39;99267.63;5085504;28;20040;-67
2022/04/14 04:23:53;;;;;;;5.97;3.80;;;;;;;11.00;44.01;99265.72;5085366;28;20086;-68
2022/04/14 04:26:27;;;;;;;7.20;4.10;;;;;;;10.89;44.19;99276.97;5085742;28;20067;-69
2022/04/14 04:28:59;;;;;;;5.78;4.50;;;;;;;10.60;44.22;99237.97;5085705;28;20048;-69
2022/04/14 04:31:31;;;;;;;6.03;4.22;;;;;;;10.92;44.02;99286.53;5085341;28;20224;-69
2022/04/14 04:34:03;;;;;;;7.55;3.88;;;;;;;10.96;44.08;99277.47;5085559;28;20137;-69
2022/04/14 04:36:35;;;;;;;5.78;4.07;;;;;;;11.01;43.93;99283.34;5085352;28;20043;-69
2022/04/14 04:39:08;;;;;;;5.90;3.90;;;;;;;11.01;43.82;99272.75;5085462;28;20239;-69
2022/04/14 04:41:41;;;;;;;5.95;4.15;;;;;;;11.03;43.87;99278.81;5088216;28;20306;-68
2022/04/14 04:44:13;;;;;;;6.25;4.00;;;;;;;11.01;43.75;99295.75;5089341;28;20058;-69
2022/04/14 04:46:46;;;;;;;6.47;4.55;;;;;;;10.99;44.02;99293.19;5071729;28;20090;-69
2022/04/14 04:49:18;;;;;;;5.63;3.55;;;;;;;10.84;43.71;99268.41;5089505;28;20086;-69
2022/04/14 04:51:50;;;;;;;6.72;4.70;;;;;;;10.98;43.70;99298.59;5089287;28;20041;-69
2022/04/14 04:54:22;;;;;;;8.43;4.45;;;;;;;10.93;43.88;99303.31;5089344;28;20090;-69
2022/04/14 04:56:56;;;;;;;7.95;4.50;;;;;;;10.01;43.84;99175.13;5089033;28;20101;-69
2022/04/14 04:59:28;;;;;;;5.87;4.60;;;;;;;10.87;43.93;99301.84;5089381;28;20293;-68
2022/04/14 05:02:00;;;;;;;6.88;4.05;;;;;;;10.84;43.32;99299.38;5088882;28;20364;-68
2022/04/14 05:04:33;;;;;;;5.07;4.10;;;;;;;10.49;43.85;99257.16;5071558;28;20040;-69
2022/04/14 05:07:08;;;;;;;5.50;3.63;;;;;;;10.78;43.84;99302.38;5071310;28;20071;-69
2022/04/14 05:09:40;;;;;;;4.90;4.07;;;;;;;10.76;43.92;99298.94;5088814;28;20082;-70
2022/04/14 05:12:14;;;;;;;6.57;4.13;;;;;;;10.74;43.96;99291.06;5071616;28;20040;-69
2022/04/14 05:14:46;;;;;;;7.18;4.68;;;;;;;10.78;43.82;99300.59;5089164;28;20041;-69
2022/04/14 05:17:19;;;;;;;7.72;4.65;;;;;;;10.71;43.71;99299.19;5089075;28;20045;-68
2022/04/14 05:19:51;;;;;;;6.60;4.00;;;;;;;10.69;43.99;99311.69;5071456;28;20293;-68
2022/04/14 05:22:23;;;;;;;5.72;4.13;;;;;;;10.69;43.88;99289.63;5088695;28;20036;-67
2022/04/14 05:24:56;;;;;;;4.97;4.00;;;;;;;10.67;44.00;99288.84;5088999;28;20044;-67
2022/04/14 05:27:29;;;;;;;6.55;4.40;;;;;;;10.74;43.85;99288.41;5088415;28;20177;-67
2022/04/14 05:30:02;;;;;;;6.95;4.38;;;;;;;10.68;43.80;99291.41;5070761;28;20052;-67
2022/04/14 05:32:34;;;;;;;7.15;4.57;;;;;;;10.47;43.78;99234.31;5088272;28;20235;-68
2022/04/14 05:35:05;;;;;;;5.40;4.20;;;;;;;10.80;43.41;99279.28;5070740;28;20204;-68
2022/04/14 05:37:35;;;;;;;8.30;4.45;;;;;;;10.80;43.52;99287.25;5088049;28;20308;-68
2022/04/14 05:40:05;;;;;;;5.72;3.97;;;;;;;10.84;43.32;99286.13;5088350;28;20252;-67
2022/04/14 05:42:36;;;;;;;9.40;4.43;;;;;;;10.83;43.29;99287.91;5087966;28;20100;-67
2022/04/14 05:45:05;;;;;;;7.38;4.63;;;;;;;10.92;43.22;99289.19;5088276;28;20052;-68
2022/04/14 05:47:34;;;;;;;6.70;3.97;;;;;;;10.97;43.10;99289.78;5088273;28;20033;-68
2022/04/14 05:50:05;;;;;;;8.77;3.72;;;;;;;11.02;42.99;99306.28;5087883;28;20048;-68
2022/04/14 05:52:35;;;;;;;6.22;3.90;;;;;;;11.05;42.84;99284.03;5087468;28;20032;-67
2022/04/14 05:55:06;;;;;;;7.90;3.80;;;;;;;11.15;42.62;99291.34;5087837;28;20036;-68
2022/04/14 05:57:36;;;;;;;7.13;4.40;;;;;;;11.18;42.55;99296.50;5070605;28;20202;-68
2022/04/14 06:00:06;;;;;;;7.25;3.88;;;;;;;11.21;42.56;99288.34;5088003;28;20040;-68
2022/04/14 06:02:35;;;;;;;7.15;4.18;;;;;;;11.38;42.55;99294.47;5088010;28;20075;-68
2022/04/14 06:05:07;;;;;;;6.80;4.03;;;;;;;11.38;42.07;99290.00;5088031;28;20040;-68
2022/04/14 06:07:36;;;;;;;5.50;3.53;;;;;;;11.45;41.92;99288.69;5087438;28;20067;-68
2022/04/14 06:10:06;;;;;;;6.93;3.90;;;;;;;11.58;41.85;99286.16;5087465;28;20095;-68
2022/04/14 06:12:37;;;;;;;7.75;4.63;;;;;;;11.72;41.65;99287.97;5087359;28;20055;-69
2022/04/14 06:15:07;;;;;;;6.07;5.05;;;;;;;12.58;39.87;99241.84;5087458;28;20046;-69
2022/04/14 06:17:36;;;;;;;8.57;4.30;;;;;;;15.60;34.61;99225.56;5087270;28;20263;-69
2022/04/14 06:20:07;;;;;;;8.18;4.30;;;;;;;17.88;31.14;99260.28;5087401;28;20040;-69
2022/04/14 06:22:38;;;;;;;7.15;3.95;;;;;;;18.48;30.30;99255.88;5088165;28;20033;-69
2022/04/14 06:25:12;;;;;;;5.38;4.22;;;;;;;19.84;28.77;99240.69;5087296;28;20036;-69
2022/04/14 06:27:45;;;;;;;6.78;4.03;;;;;;;19.35;28.83;99247.09;5087366;28;20330;-69
2022/04/14 06:30:18;;;;;;;8.52;4.47;;;;;;;20.58;27.92;99237.13;5087021;28;20044;-69
2022/04/14 06:33:02;;;;;;;5.43;3.93;;;;;;;21.59;26.53;99230.53;5086880;28;20235;-69
2022/04/14 06:35:34;;;;;;;5.80;4.20;;;;;;;22.39;25.69;99234.72;5069219;28;20041;-69
2022/04/14 06:38:07;;;;;;;6.00;3.97;;;;;;;21.99;25.72;99232.66;5086773;28;20040;-69
2022/04/14 06:40:40;;;;;;;6.05;3.92;;;;;;;21.79;26.39;99234.69;5086822;28;20326;-69
2022/04/14 06:43:13;;;;;;;7.63;4.03;;;;;;;22.27;25.47;99236.84;5086598;28;20106;-69
2022/04/14 06:45:46;;;;;;;5.28;3.70;;;;;;;22.58;25.89;99234.50;5086594;28;20101;-69
2022/04/14 06:48:18;;;;;;;6.18;4.38;;;;;;;22.27;25.65;99236.00;5086891;28;20297;-68
2022/04/14 06:50:50;;;;;;;9.27;4.32;;;;;;;20.94;27.11;99241.56;5086974;28;20335;-68
2022/04/14 06:53:22;;;;;;;5.65;3.95;;;;;;;21.52;27.29;99242.94;5086597;28;20090;-69
2022/04/14 06:55:54;;;;;;;6.13;4.45;;;;;;;21.09;28.32;99250.00;5069138;28;20232;-68
2022/04/14 06:58:28;;;;;;;6.22;4.40;;;;;;;18.92;29.22;99135.56;5086682;28;20040;-68
2022/04/14 07:01:00;;;;;;;7.00;4.10;;;;;;;18.37;31.53;99258.66;5086488;28;20062;-68
2022/04/14 07:03:33;;;;;;;6.68;3.88;;;;;;;17.72;32.98;99267.13;5086199;28;20056;-69
2022/04/14 07:06:05;;;;;;;6.00;3.58;;;;;;;17.14;34.02;99264.81;5086638;28;20041;-69
2022/04/14 07:08:38;;;;;;;7.78;3.40;;;;;;;16.74;34.52;99203.03;5086295;28;20094;-68
2022/04/14 07:11:10;;;;;;;8.77;3.83;;;;;;;16.70;33.58;99239.03;5086166;28;20231;-69
2022/04/14 07:13:44;;;;;;;5.55;3.97;;;;;;;16.70;33.96;99279.19;5086493;28;20049;-68
2022/04/14 07:16:16;;;;;;;6.50;4.50;;;;;;;16.63;35.47;99276.13;5086472;28;20041;-68
2022/04/14 07:18:48;;;;;;;5.90;3.40;;;;;;;16.68;35.93;99283.81;5068969;28;20040;-68
2022/04/14 07:21:20;;;;;;;4.80;3.40;;;;;;;16.41;35.59;99240.53;5085968;28;20272;-68
2022/04/14 07:23:53;;;;;;;6.03;4.07;;;;;;;16.50;34.78;99291.47;5085879;28;20040;-68
2022/04/14 07:26:25;;;;;;;5.93;3.53;;;;;;;16.38;34.95;99294.28;5085940;28;20044;-69
2022/04/14 07:28:59;;;;;;;6.47;3.83;;;;;;;16.41;34.57;99299.38;5086160;28;20116;-69
2022/04/14 07:31:31;;;;;;;6.80;4.25;;;;;;;16.24;34.85;99292.69;5085762;28;20215;-69
2022/04/14 07:34:05;;;;;;;5.90;3.40;;;;;;;15.95;35.59;99257.56;5085693;28;20036;-69
2022/04/14 07:36:37;;;;;;;6.80;4.32;;;;;;;16.40;35.06;99300.34;5085829;28;20086;-68
2022/04/14 07:39:10;;;;;;;5.03;3.70;;;;;;;16.43;34.91;99300.09;5085861;28;20040;-69
2022/04/14 07:41:42;;;;;;;5.53;3.70;;;;;;;16.70;34.87;99294.38;5085726;28;20048;-68
2022/04/14 07:44:16;;;;;;;6.20;3.47;;;;;;;16.85;34.42;99301.16;5086025;28;20040;-69
2022/04/14 07:46:48;;;;;;;6.47;4.07;;;;;;;16.94;34.37;99293.22;5085704;28;20036;-69
2022/04/14 07:49:20;;;;;;;5.40;3.50;;;;;;;16.96;34.30;99309.16;5086022;28;20040;-69
2022/04/14 07:51:55;;;;;;;7.88;3.80;;;;;;;16.96;34.02;99301.13;5085655;28;20083;-68
2022/04/14 07:54:27;;;;;;;8.95;4.05;;;;;;;17.03;33.99;99290.78;5085777;28;20082;-69
2022/04/14 07:57:00;;;;;;;4.47;3.40;;;;;;;16.93;34.53;99256.72;5068220;28;20089;-69
2022/04/14 07:59:34;;;;;;;7.32;4.40;;;;;;;17.00;33.85;99291.88;5085452;28;20041;-69
2022/04/14 08:02:06;;;;;;;5.40;3.63;;;;;;;16.99;34.58;99279.47;5085662;28;20094;-68
2022/04/14 08:04:38;;;;;;;5.72;3.58;;;;;;;17.17;34.26;99282.44;5085309;28;20045;-68
2022/04/14 08:07:11;;;;;;;9.85;3.83;;;;;;;17.34;33.99;99286.41;5085427;28;20048;-69
2022/04/14 08:09:44;;;;;;;4.88;3.42;;;;;;;17.40;33.65;99285.91;5085659;28;20086;-68
2022/04/14 08:12:16;;;;;;;6.32;4.05;;;;;;;17.53;34.16;99282.06;5085473;28;20040;-68
2022/04/14 08:14:49;;;;;;;5.82;3.63;;;;;;;17.69;33.18;99287.00;5085198;28;20086;-68
2022/04/14 08:17:21;;;;;;;8.27;4.00;;;;;;;17.86;33.42;99283.72;5085294;28;20086;-69
2022/04/14 08:19:54;;;;;;;6.88;3.88;;;;;;;17.91;33.43;99280.63;5085123;28;20173;-69
2022/04/14 08:22:26;;;;;;;5.88;4.28;;;;;;;18.09;33.23;99283.53;5085500;28;20090;-69
2022/04/14 08:24:58;;;;;;;7.07;3.78;;;;;;;18.36;33.05;99280.28;5068091;28;20051;-68
2022/04/14 08:27:30;;;;;;;5.72;3.42;;;;;;;18.53;33.21;99271.59;5085327;28;20243;-69
2022/04/14 08:30:04;;;;;;;6.68;3.70;;;;;;;18.67;32.13;99281.94;5085476;28;20044;-69
2022/04/14 08:32:37;;;;;;;7.72;3.13;;;;;;;18.76;32.05;99282.97;5085059;28;20044;-68
2022/04/14 08:35:09;;;;;;;4.93;3.30;;;;;;;18.68;31.67;99246.06;5085290;28;20086;-68
2022/04/14 08:37:39;;;;;;;4.22;3.20;;;;;;;18.90;32.60;99288.78;5085025;28;20326;-69
2022/04/14 08:40:12;;;;;;;5.30;3.65;;;;;;;19.00;32.27;99298.69;5085147;28;20044;-69
2022/04/14 08:42:40;;;;;;;4.97;3.10;;;;;;;18.97;31.82;99299.81;5084853;28;20373;-69
2022/04/14 08:45:14;;;;;;;6.97;3.65;;;;;;;18.99;31.35;99297.84;5084791;28;20292;-69
2022/04/14 08:47:44;;;;;;;5.97;3.65;;;;;;;19.12;31.76;99302.94;5084885;28;20060;-68
2022/04/14 08:50:14;;;;;;;6.22;3.75;;;;;;;19.26;31.93;99299.00;5084946;28;20042;-69
2022/04/14 08:52:45;;;;;;;5.68;3.20;;;;;;;19.39;31.23;99302.28;5085237;28;20101;-69
2022/04/14 08:55:15;;;;;;;10.60;3.55;;;;;;;19.36;31.53;99292.63;5085329;28;20045;-69
2022/04/14 08:57:45;;;;;;;6.90;4.32;;;;;;;19.49;31.48;99281.63;5084841;28;20041;-69
2022/04/14 09:00:18;;;;;;;5.20;3.13;;;;;;;19.58;30.83;99278.06;5084987;28;20101;-69
2022/04/14 09:02:53;;;;;;;4.80;2.95;;;;;;;19.81;31.04;99281.31;5084893;28;20048;-69
2022/04/14 09:05:25;;;;;;;4.60;2.97;;;;;;;19.71;31.60;99285.84;5068643;28;20040;-69
2022/04/14 09:07:58;;;;;;;6.97;4.28;;;;;;;19.78;31.18;99285.13;5084444;28;20053;-69
2022/04/14 09:10:30;;;;;;;5.85;3.97;;;;;;;19.91;31.36;99294.75;5084612;28;20083;-69
2022/04/14 09:13:03;;;;;;;5.25;3.00;;;;;;;19.99;30.94;99282.25;5067496;28;20041;-68
2022/04/14 09:15:37;;;;;;;5.35;3.50;;;;;;;19.85;30.49;99283.56;5084756;28;20284;-69
2022/04/14 09:18:10;;;;;;;5.28;3.45;;;;;;;20.01;30.53;99274.91;5067196;28;20351;-70
2022/04/14 09:20:43;;;;;;;4.95;3.60;;;;;;;20.16;31.16;99286.03;5085166;28;20110;-69
2022/04/14 09:23:20;;;;;;;8.05;3.15;;;;;;;20.38;30.93;99283.00;5084552;28;20102;-69
2022/04/14 09:26:09;;;;;;;6.85;3.50;;;;;;;20.15;30.65;99239.44;5084709;28;20087;-69
2022/04/14 09:28:42;;;;;;;7.35;3.55;;;;;;;20.12;30.47;99255.88;5087571;28;20090;-69
2022/04/14 09:31:16;;;;;;;6.43;4.00;;;;;;;20.18;30.25;99268.75;5088304;28;20041;-69
2022/04/14 09:33:49;;;;;;;4.50;3.03;;;;;;;20.27;30.81;99266.19;5088464;28;20048;-69
2022/04/14 09:36:23;;;;;;;6.78;3.92;;;;;;;20.50;30.81;99267.50;5088548;28;20044;-69
2022/04/14 09:38:59;;;;;;;4.63;3.03;;;;;;;20.78;30.55;99255.72;5088142;28;20044;-69
2022/04/14 09:41:33;;;;;;;5.28;3.53;;;;;;;20.96;30.29;99244.09;5088393;28;20094;-69
2022/04/14 09:44:08;;;;;;;4.93;3.63;;;;;;;21.08;30.11;99251.00;5088247;28;20215;-69
2022/04/14 09:46:44;;;;;;;8.82;3.47;;;;;;;20.99;29.56;99263.50;5089274;28;20041;-69
2022/04/14 09:49:18;;;;;;;3.80;2.58;;;;;;;20.85;30.22;99247.03;5089138;28;20045;-69
2022/04/14 09:51:51;;;;;;;5.70;3.72;;;;;;;20.91;29.67;99244.56;5088955;28;20098;-69
2022/04/14 09:54:29;;;;;;;5.03;3.63;;;;;;;20.97;29.63;99254.72;5088982;28;20082;-69
2022/04/14 09:57:01;;;;;;;7.78;4.07;;;;;;;20.85;30.14;99253.25;5088562;28;20041;-69
2022/04/14 09:59:34;;;;;;;5.18;3.30;;;;;;;20.82;30.01;99261.63;5087902;28;20044;-68
2022/04/14 10:02:12;;;;;;;5.55;3.38;;;;;;;20.96;29.48;99250.34;5087819;28;20037;-69
2022/04/14 10:04:46;;;;;;;5.57;3.65;;;;;;;21.13;29.31;99240.59;5087662;28;20040;-69
2022/04/14 10:07:20;;;;;;;7.22;3.22;;;;;;;21.00;29.25;99243.63;5087444;28;20083;-69
2022/04/14 10:09:53;;;;;;;5.82;3.35;;;;;;;21.09;29.38;99233.81;5087979;28;20041;-69
2022/04/14 10:12:32;;;;;;;8.55;3.90;;;;;;;21.31;28.64;99229.81;5087619;28;20044;-69
2022/04/14 10:15:07;;;;;;;4.93;3.22;;;;;;;21.52;28.77;99238.41;5087636;28;20065;-68
2022/04/14 10:17:42;;;;;;;7.55;3.30;;;;;;;21.22;28.48;99207.31;5087276;28;20044;-69
2022/04/14 10:20:14;;;;;;;5.03;3.50;;;;;;;21.56;29.27;99222.75;5070023;28;20044;-69
2022/04/14 10:22:46;;;;;;;5.95;3.60;;;;;;;21.67;28.70;99233.28;5087309;28;20040;-70
2022/04/14 10:25:15;;;;;;;4.43;3.08;;;;;;;21.72;28.99;99225.56;5087462;28;20041;-69
2022/04/14 10:27:45;;;;;;;7.25;3.83;;;;;;;21.68;28.26;99234.97;5087637;28;20050;-69
2022/04/14 10:30:16;;;;;;;3.97;2.95;;;;;;;21.61;28.86;99239.31;5086983;28;20040;-69
2022/04/14 10:32:47;;;;;;;6.15;3.42;;;;;;;21.47;28.11;99197.56;5087236;28;20039;-69
2022/04/14 10:35:15;;;;;;;7.10;3.47;;;;;;;21.77;28.36;99221.38;5053294;28;20056;-69
2022/04/14 10:37:49;;;;;;;5.65;3.10;;;;;;;21.84;28.26;99210.81;5087118;28;20036;-69
2022/04/14 10:40:22;;;;;;;9.75;3.45;;;;;;;21.90;28.49;99207.50;5086823;28;20036;-69
2022/04/14 10:42:56;;;;;;;9.13;3.53;;;;;;;21.87;27.65;99215.06;5086927;28;20044;-69
2022/04/14 10:45:28;;;;;;;5.25;3.25;;;;;;;21.85;28.17;99212.53;5086912;28;20041;-69
2022/04/14 10:48:02;;;;;;;4.82;3.50;;;;;;;21.68;27.80;99219.63;5086702;28;20047;-69
2022/04/14 10:50:35;;;;;;;5.45;3.10;;;;;;;21.20;28.35;99187.78;5086577;28;20131;-69
2022/04/14 10:53:11;;;;;;;5.57;2.83;;;;;;;21.41;28.20;99200.91;5086515;28;20041;-68
2022/04/14 10:55:45;;;;;;;5.85;3.28;;;;;;;21.64;27.97;99210.16;5086741;28;20041;-69
2022/04/14 10:58:54;;;;;;;4.03;2.72;;;;;;;21.66;27.70;99216.25;5086381;28;20036;-69
2022/04/14 11:01:55;;;;;;;5.43;2.92;;;;;;;21.86;27.63;99203.41;5059484;28;20075;-69
2022/04/14 11:04:31;;;;;;;5.95;3.30;;;;;;;22.04;27.78;99206.03;5086809;28;20044;-69
2022/04/14 11:07:10;;;;;;;4.88;3.40;;;;;;;22.20;27.76;99202.56;5086547;28;20216;-69
2022/04/14 11:09:48;;;;;;;6.75;4.22;;;;;;;22.28;27.27;99208.00;5087178;28;20197;-68
2022/04/14 11:12:22;;;;;;;9.07;3.80;;;;;;;22.49;27.91;99208.44;5086252;28;20208;-69
2022/04/14 11:14:57;;;;;;;6.65;3.67;;;;;;;22.35;27.10;99204.50;5086060;28;20040;-69
2022/04/14 11:17:52;;;;;;;5.20;3.30;;;;;;;22.21;26.76;99286.09;5069287;28;20047;-69
2022/04/14 11:20:56;;;;;;;7.47;4.00;;;;;;;22.43;27.11;99198.31;5086332;28;20040;-69
2022/04/14 11:23:29;;;;;;;4.65;3.10;;;;;;;22.19;27.67;99203.59;5085811;28;20051;-69
2022/04/14 11:26:06;;;;;;;6.70;3.17;;;;;;;22.34;27.57;99199.25;5085977;28;20040;-69
2022/04/14 11:28:46;;;;;;;4.25;3.03;;;;;;;22.32;27.62;99206.66;5069447;28;20041;-68
2022/04/14 11:31:26;;;;;;;7.80;3.75;;;;;;;22.12;27.40;99213.34;5086001;28;20040;-69
2022/04/14 11:33:58;;;;;;;5.28;3.60;;;;;;;22.12;28.42;99203.38;5068225;28;20323;-69
2022/04/14 11:36:46;;;;;;;4.72;3.47;;;;;;;22.28;27.11;99189.94;5085830;28;20043;-68
2022/04/14 11:39:25;;;;;;;4.60;2.92;;;;;;;22.38;27.60;99195.22;5085573;28;20047;-67
2022/04/14 11:42:07;;;;;;;7.55;3.90;;;;;;;22.52;27.58;99191.91;5085917;28;20040;-67
2022/04/14 11:44:39;;;;;;;6.30;3.40;;;;;;;22.58;27.68;99191.28;5085830;28;20289;-68
2022/04/14 11:47:12;;;;;;;7.47;3.80;;;;;;;22.50;27.47;99185.00;5085735;28;20284;-67
2022/04/14 11:49:44;;;;;;;4.55;3.42;;;;;;;22.48;27.56;99193.25;5085167;28;20212;-68
2022/04/14 11:52:22;;;;;;;4.47;3.40;;;;;;;22.31;27.33;99196.88;5085493;28;20208;-67
2022/04/14 11:54:55;;;;;;;6.30;3.70;;;;;;;22.16;28.19;99183.16;5085496;28;20051;-67
2022/04/14 11:57:31;;;;;;;4.55;3.28;;;;;;;21.91;28.13;99097.72;5085565;28;20127;-67
2022/04/14 12:00:14;;;;;;;6.90;3.47;;;;;;;22.30;27.61;99138.50;5068151;28;20036;-67